| time (UTC) | temp F | wind direction | speed MPH | gust MPH | rain 1hr in | rain 24hr in | rain mn in | humidity % | barometer mb |
| 20260504174143 | 82 | 257 | 6.0 | 16.0 | 0.00 | 0.00 | 0.00 | 24 | 1001.7 |
| 20260504173644 | 81 | 323 | 6.0 | 16.0 | 0.00 | 0.00 | 0.00 | 25 | 1001.8 |
| 20260504173143 | 81 | 236 | 6.0 | 16.0 | 0.00 | 0.00 | 0.00 | 24 | 1001.8 |
| 20260504171645 | 81 | 313 | 6.0 | 15.0 | 0.00 | 0.00 | 0.00 | 26 | 1002.0 |
| 20260504171143 | 81 | 294 | 6.0 | 13.0 | 0.00 | 0.00 | 0.00 | 25 | 1002.0 |
| 20260504170644 | 80 | 290 | 6.0 | 16.0 | 0.00 | 0.00 | 0.00 | 27 | 1002.1 |
| 20260504170144 | 80 | 284 | 5.0 | 16.0 | 0.00 | 0.00 | 0.00 | 25 | 1002.2 |
| 20260504160126 | 74 | 279 | 4.0 | 10.0 | 0.00 | 0.00 | 0.00 | 38 | 1002.3 |
| 20260504150520 | 67 | 284 | 2.0 | 7.0 | 0.00 | 0.00 | 0.00 | 47 | 1002.7 |
| 20260504140916 | 61 | 290 | 3.0 | 7.0 | 0.00 | 0.00 | 0.00 | 54 | 1002.7 |
| 20260504140410 | 61 | 288 | 3.0 | 8.0 | 0.00 | 0.00 | 0.00 | 54 | 1002.7 |
| 20260504130802 | 56 | 293 | 0.0 | 5.0 | 0.00 | 0.00 | 0.00 | 59 | 1002.4 |
| 20260504130258 | 56 | 316 | 0.0 | 2.0 | 0.00 | 0.00 | 0.00 | 63 | 1002.3 |
| 20260504120146 | 52 | 32 | 0.0 | 0.0 | 0.00 | 0.00 | 0.00 | 67 | 1001.7 |
| 20260504081513 | 58 | 32 | 0.0 | 1.0 | 0.00 | 0.00 | 0.00 | 50 | 1003.4 |
| 20260504081006 | 58 | 32 | 0.0 | 1.0 | 0.00 | 0.00 | 0.00 | 50 | 1003.4 |
| 20260504080502 | 58 | 32 | 0.0 | 1.0 | 0.00 | 0.00 | 0.00 | 50 | 1003.5 |
| 20260504070349 | 57 | 38 | 0.0 | 0.0 | 0.00 | 0.00 | 0.00 | 53 | 1004.7 |
| 20260504060237 | 57 | 38 | 0.0 | 1.0 | 0.00 | 0.00 | 0.00 | 52 | 1005.8 |
| 20260504050648 | 58 | 38 | 0.0 | 0.0 | 0.00 | 0.00 | 0.00 | 48 | 1006.2 |
| 20260504050148 | 58 | 38 | 0.0 | 0.0 | 0.00 | 0.00 | 0.00 | 48 | 1006.2 |
| 20260504045645 | 59 | 38 | 0.0 | 0.0 | 0.00 | 0.00 | 0.00 | 48 | 1006.2 |
| 20260504045143 | 59 | 38 | 0.0 | 0.0 | 0.00 | 0.00 | 0.00 | 48 | 1006.2 |
| 20260504044643 | 59 | 38 | 0.0 | 0.0 | 0.00 | 0.00 | 0.00 | 47 | 1006.3 |
| 20260504044142 | 60 | 38 | 0.0 | 0.0 | 0.00 | 0.00 | 0.00 | 46 | 1006.4 |
| 20260504043641 | 60 | 38 | 0.0 | 0.0 | 0.00 | 0.00 | 0.00 | 46 | 1006.5 |
| 20260504043139 | 60 | 38 | 0.0 | 0.0 | 0.00 | 0.00 | 0.00 | 47 | 1006.7 |
| 20260504042640 | 61 | 38 | 0.0 | 0.0 | 0.00 | 0.00 | 0.00 | 45 | 1006.8 |
| 20260504042138 | 61 | 38 | 0.0 | 0.0 | 0.00 | 0.00 | 0.00 | 45 | 1006.7 |
| 20260504041638 | 61 | 38 | 0.0 | 0.0 | 0.00 | 0.00 | 0.00 | 45 | 1006.8 |
| 20260504035629 | 61 | 38 | 0.0 | 0.0 | 0.00 | 0.00 | 0.00 | 45 | 1007.1 |
| 20260504035126 | 62 | 38 | 0.0 | 0.0 | 0.00 | 0.00 | 0.00 | 45 | 1007.2 |
| 20260504034628 | 62 | 38 | 0.0 | 0.0 | 0.00 | 0.00 | 0.00 | 44 | 1007.3 |
| 20260504034122 | 62 | 38 | 0.0 | 0.0 | 0.00 | 0.00 | 0.00 | 44 | 1007.3 |
| 20260504033624 | 62 | 38 | 0.0 | 0.0 | 0.00 | 0.00 | 0.00 | 45 | 1007.3 |
| 20260504033122 | 62 | 38 | 0.0 | 0.0 | 0.00 | 0.00 | 0.00 | 44 | 1007.3 |
| 20260504032623 | 62 | 38 | 0.0 | 0.0 | 0.00 | 0.00 | 0.00 | 44 | 1007.4 |
| 20260504032124 | 62 | 38 | 0.0 | 0.0 | 0.00 | 0.00 | 0.00 | 44 | 1007.3 |
| 20260504031622 | 62 | 38 | 0.0 | 0.0 | 0.00 | 0.00 | 0.00 | 42 | 1007.4 |
| 20260504031122 | 63 | 38 | 0.0 | 0.0 | 0.00 | 0.00 | 0.00 | 43 | 1007.3 |
| 20260504030623 | 63 | 38 | 0.0 | 0.0 | 0.00 | 0.00 | 0.00 | 41 | 1007.3 |
| 20260504025124 | 65 | 38 | 0.0 | 0.0 | 0.00 | 0.00 | 0.00 | 41 | 1007.4 |
| 20260504024622 | 65 | 38 | 0.0 | 1.0 | 0.00 | 0.00 | 0.00 | 40 | 1007.5 |
| 20260504024122 | 66 | 38 | 0.0 | 1.0 | 0.00 | 0.00 | 0.00 | 39 | 1007.4 |
| 20260504023622 | 66 | 38 | 0.0 | 1.0 | 0.00 | 0.00 | 0.00 | 38 | 1007.5 |
| 20260504023122 | 66 | 38 | 0.0 | 0.0 | 0.00 | 0.00 | 0.00 | 38 | 1007.5 |
| 20260504022625 | 67 | 38 | 0.0 | 0.0 | 0.00 | 0.00 | 0.00 | 38 | 1007.5 |
| 20260504022125 | 67 | 38 | 0.0 | 3.0 | 0.00 | 0.00 | 0.00 | 37 | 1007.5 |
| 20260504021622 | 68 | 38 | 1.0 | 3.0 | 0.00 | 0.00 | 0.00 | 37 | 1007.6 |
| 20260504020612 | 69 | 38 | 1.0 | 3.0 | 0.00 | 0.00 | 0.00 | 36 | 1007.6 |
| 20260504014546 | 70 | 38 | 1.0 | 4.0 | 0.00 | 0.00 | 0.00 | 34 | 1007.6 |
| 20260504013535 | 70 | 36 | 1.0 | 4.0 | 0.00 | 0.00 | 0.00 | 34 | 1007.5 |
| 20260504012523 | 71 | 37 | 1.0 | 3.0 | 0.00 | 0.00 | 0.00 | 33 | 1007.5 |
| 20260504012016 | 71 | 37 | 2.0 | 3.0 | 0.00 | 0.00 | 0.00 | 32 | 1007.6 |
| 20260504011512 | 71 | 37 | 2.0 | 4.0 | 0.00 | 0.00 | 0.00 | 32 | 1007.5 |
| 20260504011005 | 72 | 21 | 2.0 | 4.0 | 0.00 | 0.00 | 0.00 | 32 | 1007.6 |
| 20260504010459 | 72 | 36 | 2.0 | 6.0 | 0.00 | 0.00 | 0.00 | 31 | 1007.6 |
| 20260504005954 | 72 | 48 | 3.0 | 6.0 | 0.00 | 0.00 | 0.00 | 31 | 1007.6 |
| 20260504004941 | 74 | 34 | 1.0 | 3.0 | 0.00 | 0.00 | 0.00 | 29 | 1007.7 |
| 20260504004435 | 74 | 23 | 1.0 | 3.0 | 0.00 | 0.00 | 0.00 | 28 | 1007.7 |
| 20260504003929 | 74 | 23 | 1.0 | 3.0 | 0.00 | 0.00 | 0.00 | 28 | 1007.7 |
| 20260504003423 | 75 | 22 | 1.0 | 3.0 | 0.00 | 0.00 | 0.00 | 27 | 1007.9 |
| 20260504002918 | 76 | 23 | 0.0 | 3.0 | 0.00 | 0.00 | 0.00 | 27 | 1007.9 |
| 20260504001906 | 77 | 281 | 0.0 | 1.0 | 0.00 | 0.00 | 0.00 | 25 | 1008.1 |
| 20260504001400 | 77 | 281 | 1.0 | 4.0 | 0.00 | 0.00 | 0.00 | 27 | 1008.2 |
| 20260504000853 | 78 | 278 | 1.0 | 4.0 | 0.00 | 0.00 | 0.00 | 25 | 1008.3 |
| 20260504000347 | 78 | 263 | 1.0 | 4.0 | 0.00 | 0.00 | 0.00 | 25 | 1008.4 |
| 20260503235842 | 78 | 350 | 1.0 | 4.0 | 0.00 | 0.00 | 0.00 | 25 | 1008.4 |
| 20260503235335 | 78 | 340 | 1.0 | 3.0 | 0.00 | 0.00 | 0.00 | 25 | 1008.5 |
| 20260503234830 | 79 | 286 | 1.0 | 5.0 | 0.00 | 0.00 | 0.00 | 25 | 1008.4 |
| 20260503234322 | 78 | 284 | 2.0 | 5.0 | 0.00 | 0.00 | 0.00 | 24 | 1008.5 |
| 20260503233816 | 78 | 300 | 1.0 | 5.0 | 0.00 | 0.00 | 0.00 | 26 | 1008.5 |
| 20260503233312 | 78 | 325 | 0.0 | 3.0 | 0.00 | 0.00 | 0.00 | 25 | 1008.6 |
| 20260503232804 | 78 | 281 | 1.0 | 4.0 | 0.00 | 0.00 | 0.00 | 24 | 1008.6 |
| 20260503232258 | 78 | 281 | 2.0 | 4.0 | 0.00 | 0.00 | 0.00 | 24 | 1008.6 |
| 20260503231753 | 78 | 276 | 2.0 | 7.0 | 0.00 | 0.00 | 0.00 | 25 | 1008.7 |
| 20260503231247 | 77 | 304 | 2.0 | 6.0 | 0.00 | 0.00 | 0.00 | 25 | 1008.7 |
| 20260503230741 | 77 | 227 | 2.0 | 7.0 | 0.00 | 0.00 | 0.00 | 25 | 1008.3 |
| 20260503230237 | 78 | 275 | 2.0 | 7.0 | 0.00 | 0.00 | 0.00 | 24 | 1008.5 |
| 20260503225729 | 78 | 267 | 1.0 | 3.0 | 0.00 | 0.00 | 0.00 | 24 | 1008.7 |
| 20260503225223 | 78 | 290 | 2.0 | 7.0 | 0.00 | 0.00 | 0.00 | 24 | 1008.8 |
| 20260503224717 | 78 | 275 | 3.0 | 7.0 | 0.00 | 0.00 | 0.00 | 24 | 1008.8 |
| 20260503224212 | 78 | 225 | 2.0 | 8.0 | 0.00 | 0.00 | 0.00 | 25 | 1008.7 |
| 20260503223704 | 78 | 272 | 1.0 | 8.0 | 0.00 | 0.00 | 0.00 | 24 | 1008.8 |
| 20260503223159 | 78 | 314 | 2.0 | 5.0 | 0.00 | 0.00 | 0.00 | 24 | 1008.8 |
| 20260503222654 | 77 | 44 | 1.0 | 5.0 | 0.00 | 0.00 | 0.00 | 24 | 1008.8 |
| 20260503222148 | 78 | 26 | 1.0 | 5.0 | 0.00 | 0.00 | 0.00 | 25 | 1008.8 |
| 20260503221641 | 77 | 273 | 1.0 | 5.0 | 0.00 | 0.00 | 0.00 | 25 | 1008.9 |
| 20260503221136 | 77 | 38 | 3.0 | 9.0 | 0.00 | 0.00 | 0.00 | 26 | 1008.9 |
| 20260503220630 | 76 | 342 | 5.0 | 12.0 | 0.00 | 0.00 | 0.00 | 25 | 1009.0 |
| 20260503220123 | 77 | 22 | 5.0 | 12.0 | 0.00 | 0.00 | 0.00 | 25 | 1009.0 |
| 20260503215616 | 78 | 307 | 3.0 | 10.0 | 0.00 | 0.00 | 0.00 | 25 | 1009.0 |
| 20260503215110 | 78 | 51 | 3.0 | 11.0 | 0.00 | 0.00 | 0.00 | 25 | 1009.0 |
| 20260503214605 | 78 | 22 | 2.0 | 11.0 | 0.00 | 0.00 | 0.00 | 25 | 1009.0 |
| 20260503214059 | 78 | 31 | 1.0 | 10.0 | 0.00 | 0.00 | 0.00 | 26 | 1009.1 |
| 20260503213553 | 77 | 270 | 3.0 | 11.0 | 0.00 | 0.00 | 0.00 | 25 | 1009.2 |
| 20260503213048 | 77 | 33 | 4.0 | 11.0 | 0.00 | 0.00 | 0.00 | 24 | 1009.3 |
| 20260503212542 | 78 | 11 | 4.0 | 9.0 | 0.00 | 0.00 | 0.00 | 25 | 1009.3 |
| 20260503212034 | 77 | 298 | 3.0 | 8.0 | 0.00 | 0.00 | 0.00 | 26 | 1009.3 |
| 20260503211023 | 77 | 227 | 2.0 | 7.0 | 0.00 | 0.00 | 0.00 | 27 | 1009.5 |
| 20260503210517 | 76 | 275 | 3.0 | 7.0 | 0.00 | 0.00 | 0.00 | 26 | 1009.6 |
| 20260503205506 | 76 | 307 | 4.0 | 12.0 | 0.00 | 0.00 | 0.00 | 27 | 1009.9 |
| 20260503204454 | 76 | 35 | 4.0 | 11.0 | 0.00 | 0.00 | 0.00 | 27 | 1010.0 |
| 20260503203440 | 77 | 34 | 2.0 | 11.0 | 0.00 | 0.00 | 0.00 | 28 | 1010.0 |
| 20260503202936 | 76 | 32 | 1.0 | 10.0 | 0.00 | 0.00 | 0.00 | 28 | 1010.1 |
| 20260503202430 | 75 | 32 | 3.0 | 10.0 | 0.00 | 0.00 | 0.00 | 27 | 1010.2 |
| 20260503201923 | 75 | 271 | 4.0 | 9.0 | 0.00 | 0.00 | 0.00 | 27 | 1010.3 |
| 20260503201418 | 76 | 41 | 3.0 | 6.0 | 0.00 | 0.00 | 0.00 | 26 | 1010.5 |
| 20260503200911 | 76 | 34 | 4.0 | 9.0 | 0.00 | 0.00 | 0.00 | 26 | 1010.5 |
| 20260503200405 | 75 | 44 | 5.0 | 13.0 | 0.00 | 0.00 | 0.00 | 27 | 1010.5 |
| 20260503195907 | 75 | 9 | 5.0 | 13.0 | 0.00 | 0.00 | 0.00 | 28 | 1010.6 |
| 20260503195404 | 75 | 34 | 5.0 | 12.0 | 0.00 | 0.00 | 0.00 | 28 | 1010.6 |
| 20260503194905 | 75 | 27 | 6.0 | 13.0 | 0.00 | 0.00 | 0.00 | 28 | 1010.7 |
| 20260503194404 | 75 | 34 | 6.0 | 13.0 | 0.00 | 0.00 | 0.00 | 27 | 1010.7 |
| 20260503193904 | 75 | 44 | 6.0 | 13.0 | 0.00 | 0.00 | 0.00 | 26 | 1010.7 |
| 20260503193404 | 76 | 24 | 4.0 | 11.0 | 0.00 | 0.00 | 0.00 | 26 | 1010.7 |
| 20260503192904 | 76 | 284 | 4.0 | 10.0 | 0.00 | 0.00 | 0.00 | 27 | 1010.7 |
| 20260503192403 | 75 | 276 | 5.0 | 12.0 | 0.00 | 0.00 | 0.00 | 28 | 1010.7 |
| 20260503191904 | 75 | 32 | 6.0 | 15.0 | 0.00 | 0.00 | 0.00 | 29 | 1010.7 |
| 20260503191404 | 75 | 18 | 6.0 | 15.0 | 0.00 | 0.00 | 0.00 | 28 | 1010.8 |
| 20260503190904 | 76 | 26 | 5.0 | 14.0 | 0.00 | 0.00 | 0.00 | 27 | 1010.8 |
| 20260503190405 | 76 | 34 | 4.0 | 13.0 | 0.00 | 0.00 | 0.00 | 28 | 1010.9 |
| 20260503185904 | 75 | 272 | 4.0 | 13.0 | 0.00 | 0.00 | 0.00 | 29 | 1010.8 |
| 20260503185402 | 75 | 36 | 4.0 | 13.0 | 0.00 | 0.00 | 0.00 | 28 | 1010.9 |
| 20260503184904 | 75 | 36 | 3.0 | 13.0 | 0.00 | 0.00 | 0.00 | 29 | 1010.9 |
| 20260503184404 | 75 | 50 | 5.0 | 14.0 | 0.00 | 0.00 | 0.00 | 29 | 1011.0 |
| 20260503183904 | 74 | 321 | 5.0 | 14.0 | 0.00 | 0.00 | 0.00 | 31 | 1011.1 |
| 20260503182901 | 75 | 26 | 5.0 | 13.0 | 0.00 | 0.00 | 0.00 | 30 | 1011.1 |
| 20260503182402 | 75 | 308 | 4.0 | 13.0 | 0.00 | 0.00 | 0.00 | 31 | 1011.1 |
| 20260503181901 | 74 | 41 | 3.0 | 12.0 | 0.00 | 0.00 | 0.00 | 31 | 1011.1 |
| 20260503181403 | 73 | 207 | 4.0 | 8.0 | 0.00 | 0.00 | 0.00 | 31 | 1011.2 |
| 20260503180859 | 73 | 38 | 4.0 | 13.0 | 0.00 | 0.00 | 0.00 | 32 | 1011.4 |
| 20260503180359 | 73 | 42 | 5.0 | 14.0 | 0.00 | 0.00 | 0.00 | 32 | 1011.4 |
| 20260503175859 | 73 | 44 | 5.0 | 14.0 | 0.00 | 0.00 | 0.00 | 32 | 1011.5 |
| 20260503175359 | 73 | 27 | 3.0 | 12.0 | 0.00 | 0.00 | 0.00 | 34 | 1011.6 |
| 20260503174900 | 72 | 15 | 3.0 | 12.0 | 0.00 | 0.00 | 0.00 | 33 | 1011.8 |